createdAt,value
2016-06-15T00:00:48.518Z,85.35
2016-06-15T00:01:48.507Z,85.49
2016-06-15T00:02:48.478Z,85.49
2016-06-15T00:03:48.481Z,85.25
2016-06-15T00:04:48.469Z,84.87
2016-06-15T00:05:48.440Z,85.25
2016-06-15T00:06:48.443Z,85.16
2016-06-15T00:07:48.431Z,85.25
2016-06-15T00:08:48.403Z,85.16
2016-06-15T00:09:48.406Z,85.54
2016-06-15T00:10:48.394Z,85.83
2016-06-15T00:11:48.365Z,85.35
2016-06-15T00:12:48.353Z,85.83
2016-06-15T00:13:48.339Z,85.44
2016-06-15T00:14:48.312Z,84.97
2016-06-15T00:15:48.300Z,85.35
2016-06-15T00:16:48.287Z,85.83
2016-06-15T00:17:48.274Z,85.35
2016-06-15T00:18:48.277Z,84.67
2016-06-15T00:19:48.968Z,84.53
2016-06-15T00:20:48.236Z,84.53
2016-06-15T00:21:48.209Z,84.05
2016-06-15T00:22:48.196Z,84.77
2016-06-15T00:23:48.200Z,85.06
2016-06-15T00:24:48.170Z,84.72
2016-06-15T00:25:48.174Z,84.62
2016-06-15T00:26:48.161Z,84.58
2016-06-15T00:27:48.149Z,84.67
2016-06-15T00:28:48.104Z,85.06
2016-06-15T00:29:48.108Z,86.02
2016-06-15T00:30:48.110Z,85.35
2016-06-15T00:31:48.067Z,86.51
2016-06-15T00:32:48.055Z,86.31
2016-06-15T00:33:48.058Z,85.93
2016-06-15T00:34:47.873Z,85.93
2016-06-15T00:35:48.017Z,85.83
2016-06-15T00:36:48.021Z,85.93
2016-06-15T00:37:47.992Z,86.02
2016-06-15T00:38:47.963Z,86.69
2016-06-15T00:39:47.967Z,86.56
2016-06-15T00:40:47.939Z,85.54
2016-06-15T00:41:47.925Z,85.35
2016-06-15T00:42:47.929Z,85.74
2016-06-15T00:43:47.932Z,85.83
2016-06-15T00:44:47.889Z,86.12
2016-06-15T00:45:47.876Z,85.25
2016-06-15T00:46:47.848Z,85.2
2016-06-15T00:47:47.851Z,85.44
2016-06-15T00:48:47.822Z,85.74
2016-06-15T00:49:48.232Z,85.54
2016-06-15T00:50:47.813Z,85.64
2016-06-15T00:51:47.770Z,85.35
2016-06-15T00:52:47.803Z,85.06
2016-06-15T00:53:47.760Z,85.11
2016-06-15T00:54:47.748Z,85.16
2016-06-15T00:55:47.735Z,86.08
2016-06-15T00:56:47.722Z,85.69
2016-06-15T00:57:47.710Z,84.63
2016-06-15T00:58:47.713Z,84.1
2016-06-15T00:59:47.736Z,84.54
2016-06-15T01:00:47.760Z,84.34
2016-06-15T01:01:47.784Z,83.96
2016-06-15T01:02:47.807Z,83.86
2016-06-15T01:03:47.812Z,83.29
2016-06-15T01:04:47.641Z,83.33
2016-06-15T01:05:47.813Z,83.14
2016-06-15T01:06:47.798Z,83.77
2016-06-15T01:07:47.798Z,84.06
2016-06-15T01:08:47.792Z,83.48
2016-06-15T01:09:47.785Z,83.19
2016-06-15T01:10:47.776Z,83.77
2016-06-15T01:11:47.770Z,83.92
2016-06-15T01:12:47.746Z,83.86
2016-06-15T01:13:47.845Z,83.48
2016-06-15T01:14:47.771Z,82.81
2016-06-15T01:15:47.761Z,84.06
2016-06-15T01:16:47.687Z,83.96
2016-06-15T01:17:47.676Z,83.19
2016-06-15T01:18:47.681Z,83.39
2016-06-15T01:19:48.153Z,83.44
2016-06-15T01:20:47.688Z,82.81
2016-06-15T01:21:47.676Z,83.29
2016-06-15T01:22:47.665Z,83.83
2016-06-15T01:23:47.777Z,84.21
2016-06-15T01:24:47.592Z,83.83
2016-06-15T01:25:47.580Z,82.96
2016-06-15T01:26:47.567Z,83.39
2016-06-15T01:27:47.540Z,82.9
2016-06-15T01:28:47.526Z,82.61
2016-06-15T01:29:47.515Z,82.96
2016-06-15T01:30:47.485Z,82.48
2016-06-15T01:31:47.489Z,82.09
2016-06-15T01:32:47.460Z,82.19
2016-06-15T01:33:47.464Z,81.9
2016-06-15T01:34:47.435Z,81.84
2016-06-15T01:35:48.095Z,82.09
2016-06-15T01:36:47.410Z,81.61
2016-06-15T01:37:47.414Z,81.81
2016-06-15T01:38:47.385Z,82.29
2016-06-15T01:39:47.373Z,82.86
2016-06-15T01:40:47.360Z,82.38
2016-06-15T01:41:47.348Z,82.76
2016-06-15T01:42:47.319Z,82.96
2016-06-15T01:43:47.291Z,83.25
2016-06-15T01:44:47.295Z,83.44
2016-06-15T01:45:47.281Z,82.38
2016-06-15T01:46:47.269Z,82.19
2016-06-15T01:47:47.256Z,82.09
2016-06-15T01:48:47.229Z,81.52
2016-06-15T01:49:47.216Z,81.94
2016-06-15T01:50:47.204Z,82.04
2016-06-15T01:51:47.191Z,82.23
2016-06-15T01:52:47.194Z,82.76
2016-06-15T01:53:47.166Z,83.44
2016-06-15T01:54:47.153Z,83.01
2016-06-15T01:55:47.125Z,82.96
2016-06-15T01:56:47.128Z,83.44
2016-06-15T01:57:47.100Z,83.53
2016-06-15T01:58:47.071Z,83.15
2016-06-15T01:59:47.075Z,83.2
2016-06-15T02:00:47.047Z,82.67
2016-06-15T02:01:47.050Z,83.06
2016-06-15T02:02:47.038Z,82.48
2016-06-15T02:03:47.025Z,82.38
2016-06-15T02:04:46.981Z,82.38
2016-06-15T02:05:46.968Z,82.67
2016-06-15T02:06:46.971Z,82.96
2016-06-15T02:07:46.959Z,82.96
2016-06-15T02:08:46.946Z,83.44
2016-06-15T02:09:46.934Z,83.97
2016-06-15T02:10:46.921Z,84.26
2016-06-15T02:11:46.894Z,83.87
2016-06-15T02:12:46.725Z,83.97
2016-06-15T02:13:46.853Z,84.07
2016-06-15T02:14:46.856Z,82.92
2016-06-15T02:15:46.828Z,83.4
2016-06-15T02:16:46.831Z,83.4
2016-06-15T02:17:46.802Z,83.78
2016-06-15T02:18:46.805Z,82.92
2016-06-15T02:19:46.777Z,84.26
2016-06-15T02:20:46.749Z,83.87
2016-06-15T02:21:46.596Z,83.87
2016-06-15T02:22:46.725Z,84.55
2016-06-15T02:23:46.727Z,83.97
2016-06-15T02:24:46.699Z,83.97
2016-06-15T02:25:46.686Z,84.74
2016-06-15T02:26:46.673Z,84.45
2016-06-15T02:27:46.660Z,84.55
2016-06-15T02:28:46.633Z,83.97
2016-06-15T02:29:46.620Z,83.78
2016-06-15T02:30:46.608Z,83.44
2016-06-15T02:31:46.594Z,82.96
2016-06-15T02:32:46.598Z,82.57
2016-06-15T02:33:46.554Z,82.38
2016-06-15T02:34:46.557Z,82.19
2016-06-15T02:35:46.545Z,81.99
2016-06-15T02:36:46.517Z,82.71
2016-06-15T02:37:46.504Z,82.86
2016-06-15T02:38:46.491Z,82.96
2016-06-15T02:39:46.479Z,82.96
2016-06-15T02:40:46.450Z,84.21
2016-06-15T02:41:46.298Z,84.07
2016-06-15T02:42:46.425Z,83.87
2016-06-15T02:43:46.429Z,83.92
2016-06-15T02:44:46.417Z,83.83
2016-06-15T02:45:46.388Z,84.17
2016-06-15T02:46:46.376Z,84.21
2016-06-15T02:47:46.363Z,85.03
2016-06-15T02:48:46.335Z,85.22
2016-06-15T02:49:46.322Z,84.99
2016-06-15T02:50:46.920Z,84.26
2016-06-15T02:51:46.313Z,84.55
2016-06-15T02:52:46.285Z,84.55
2016-06-15T02:53:46.256Z,83.97
2016-06-15T02:54:46.244Z,83.73
2016-06-15T02:55:46.247Z,83.92
2016-06-15T02:56:46.219Z,83.92
2016-06-15T02:57:46.206Z,84.11
2016-06-15T02:58:46.194Z,84.17
2016-06-15T02:59:46.180Z,83.78
2016-06-15T03:00:46.169Z,83.78
2016-06-15T03:01:46.140Z,84.26
2016-06-15T03:02:46.129Z,83.59
2016-06-15T03:03:46.131Z,83.97
2016-06-15T03:04:46.103Z,83.69
2016-06-15T03:05:46.090Z,84.45
2016-06-15T03:06:46.078Z,83.69
2016-06-15T03:07:46.066Z,84.07
2016-06-15T03:08:46.053Z,83.4
2016-06-15T03:09:46.025Z,83.63
2016-06-15T03:10:46.011Z,83.87
2016-06-15T03:11:46.000Z,83.59
2016-06-15T03:12:46.003Z,83.3
2016-06-15T03:13:45.974Z,83.69
2016-06-15T03:14:45.962Z,83.97
2016-06-15T03:15:45.933Z,83.97
2016-06-15T03:16:45.921Z,83.44
2016-06-15T03:17:45.909Z,83.97
2016-06-15T03:18:45.896Z,83.44
2016-06-15T03:19:45.899Z,83.15
2016-06-15T03:20:45.870Z,83.69
2016-06-15T03:21:45.858Z,83.3
2016-06-15T03:22:45.845Z,83.44
2016-06-15T03:23:45.818Z,84.11
2016-06-15T03:24:45.804Z,85.41
2016-06-15T03:25:45.793Z,84.55
2016-06-15T03:26:45.780Z,85.22
2016-06-15T03:27:45.783Z,84.64
2016-06-15T03:28:45.755Z,84.26
2016-06-15T03:29:45.742Z,84.26
2016-06-15T03:30:45.729Z,84.26
2016-06-15T03:31:45.701Z,83.97
2016-06-15T03:32:45.689Z,83.44
2016-06-15T03:33:45.660Z,83.25
2016-06-15T03:34:45.649Z,83.44
2016-06-15T03:35:45.854Z,83.34
2016-06-15T03:36:45.467Z,84.74
2016-06-15T03:37:45.611Z,84.55
2016-06-15T03:38:45.598Z,84.17
2016-06-15T03:39:45.586Z,84.45
2016-06-15T03:40:45.573Z,84.64
2016-06-15T03:41:45.560Z,84.84
2016-06-15T03:42:45.548Z,83.97
2016-06-15T03:43:45.519Z,84.26
2016-06-15T03:44:45.507Z,84.26
2016-06-15T03:45:45.495Z,83.78
2016-06-15T03:46:45.466Z,83.69
2016-06-15T03:47:45.454Z,83.4
2016-06-15T03:48:45.456Z,83.92
2016-06-15T03:49:45.429Z,83.97
2016-06-15T03:50:45.978Z,83.78
2016-06-15T03:51:45.419Z,84.74
2016-06-15T03:52:45.234Z,84.55
2016-06-15T03:53:45.379Z,84.07
2016-06-15T03:54:45.365Z,83.97
2016-06-15T03:55:45.353Z,83.73
2016-06-15T03:56:45.341Z,84.45
2016-06-15T03:57:45.328Z,84.36
2016-06-15T03:58:45.316Z,84.55
2016-06-15T03:59:45.287Z,84.55
2016-06-15T04:00:45.290Z,84.55
2016-06-15T04:01:45.263Z,84.64
2016-06-15T04:02:45.234Z,84.36
2016-06-15T04:03:45.222Z,83.97
2016-06-15T04:04:45.208Z,84.74
2016-06-15T04:05:45.212Z,84.36
2016-06-15T04:06:45.184Z,84.84
2016-06-15T04:07:45.156Z,84.64
2016-06-15T04:08:45.143Z,84.64
2016-06-15T04:09:45.131Z,84.36
2016-06-15T04:10:45.118Z,84.74
2016-06-15T04:11:45.105Z,84.55
2016-06-15T04:12:45.093Z,84.55
2016-06-15T04:13:45.080Z,84.64
2016-06-15T04:14:45.068Z,84.55
2016-06-15T04:15:45.040Z,84.55
2016-06-15T04:16:45.027Z,84.55
2016-06-15T04:17:45.015Z,85.13
2016-06-15T04:18:45.018Z,85.32
2016-06-15T04:19:44.974Z,84.45
2016-06-15T04:20:45.024Z,84.64
2016-06-15T04:21:44.949Z,84.11
2016-06-15T04:22:44.952Z,83.83
2016-06-15T04:23:44.939Z,84.11
2016-06-15T04:24:44.912Z,83.83
2016-06-15T04:25:44.898Z,83.83
2016-06-15T04:26:44.887Z,83.63
2016-06-15T04:27:44.873Z,83.92
2016-06-15T04:28:44.862Z,83.63
2016-06-15T04:29:44.833Z,83.92
2016-06-15T04:30:44.821Z,83.34
2016-06-15T04:31:44.808Z,83.83
2016-06-15T04:32:44.795Z,84.78
2016-06-15T04:33:44.783Z,85.32
2016-06-15T04:34:44.770Z,84.45
2016-06-15T04:35:44.992Z,84.84
2016-06-15T04:36:44.729Z,84.88
2016-06-15T04:37:44.717Z,85.32
2016-06-15T04:38:44.704Z,85.22
2016-06-15T04:39:44.676Z,84.59
2016-06-15T04:40:44.524Z,84.59
2016-06-15T04:41:44.651Z,84.5
2016-06-15T04:42:44.638Z,84.4
2016-06-15T04:43:44.625Z,84.59
2016-06-15T04:44:44.613Z,84.69
2016-06-15T04:45:44.600Z,84.59
2016-06-15T04:46:44.573Z,84.4
2016-06-15T04:47:44.559Z,84.4
2016-06-15T04:48:44.563Z,84.88
2016-06-15T04:49:44.551Z,85.27
2016-06-15T04:50:44.679Z,85.32
2016-06-15T04:51:44.353Z,85.32
2016-06-15T04:52:44.481Z,85.27
2016-06-15T04:53:44.484Z,84.59
2016-06-15T04:54:44.472Z,84.5
2016-06-15T04:55:44.287Z,84.59
2016-06-15T04:56:44.447Z,84.74
2016-06-15T04:57:44.435Z,84.3
2016-06-15T04:58:44.406Z,83.83
2016-06-15T04:59:44.394Z,84.3
2016-06-15T05:00:44.380Z,84.01
2016-06-15T05:01:44.197Z,83.92
2016-06-15T05:02:44.341Z,84.01
2016-06-15T05:03:44.328Z,83.25
2016-06-15T05:04:44.331Z,82.48
2016-06-15T05:05:44.537Z,83.06
2016-06-15T05:06:44.353Z,82.86
2016-06-15T05:07:44.262Z,82.76
2016-06-15T05:08:44.250Z,83.87
2016-06-15T05:09:44.252Z,83.49
2016-06-15T05:10:44.225Z,83.2
2016-06-15T05:11:44.211Z,83.3
2016-06-15T05:12:44.200Z,83.3
2016-06-15T05:13:44.187Z,82.24
2016-06-15T05:14:44.174Z,82.73
2016-06-15T05:15:44.146Z,82.43
2016-06-15T05:16:44.134Z,81.57
2016-06-15T05:17:44.121Z,82.34
2016-06-15T05:18:44.108Z,81.99
2016-06-15T05:19:44.097Z,81.76
2016-06-15T05:20:44.083Z,81.32
2016-06-15T05:21:44.071Z,81.99
2016-06-15T05:22:44.042Z,82.05
2016-06-15T05:23:43.874Z,82.19
2016-06-15T05:24:44.017Z,81.42
2016-06-15T05:25:44.005Z,81.52
2016-06-15T05:26:43.992Z,81.61
2016-06-15T05:27:43.980Z,80.94
2016-06-15T05:28:43.796Z,81.81
2016-06-15T05:29:43.939Z,81.71
2016-06-15T05:30:43.927Z,80.94
2016-06-15T05:31:43.914Z,81.04
2016-06-15T05:32:43.901Z,81.17
2016-06-15T05:33:43.889Z,81.23
2016-06-15T05:34:43.876Z,81.71
2016-06-15T05:35:43.864Z,81.13
2016-06-15T05:36:44.023Z,81.23
2016-06-15T05:37:43.823Z,80.94
2016-06-15T05:38:43.810Z,81.61
2016-06-15T05:39:43.797Z,82.57
2016-06-15T05:40:43.785Z,82.96
2016-06-15T05:41:43.757Z,82.57
2016-06-15T05:42:43.745Z,81.99
2016-06-15T05:43:43.762Z,81.9
2016-06-15T05:44:43.720Z,81.56
2016-06-15T05:45:43.723Z,82.19
2016-06-15T05:46:43.695Z,82.09
2016-06-15T05:47:43.682Z,82.76
2016-06-15T05:48:43.670Z,83.25
2016-06-15T05:49:43.656Z,82.67
2016-06-15T05:50:43.628Z,82.76
2016-06-15T05:51:44.022Z,82.19
2016-06-15T05:52:43.604Z,82.48
2016-06-15T05:53:43.590Z,83.19
2016-06-15T05:54:43.563Z,83.25
2016-06-15T05:55:43.549Z,82.96
2016-06-15T05:56:43.538Z,83.44
2016-06-15T05:57:43.525Z,82.76
2016-06-15T05:58:43.513Z,83.44
2016-06-15T05:59:43.500Z,83.92
2016-06-15T06:00:43.487Z,84.59
2016-06-15T06:01:43.475Z,84.4
2016-06-15T06:02:43.463Z,85.17
2016-06-15T06:03:43.449Z,85.94
2016-06-15T06:04:43.422Z,86.42
2016-06-15T06:05:43.409Z,86.9
2016-06-15T06:06:43.396Z,87.48
2016-06-15T06:07:43.384Z,87.86
2016-06-15T06:08:43.372Z,87.96
2016-06-15T06:09:43.342Z,88.82
2016-06-15T06:10:43.331Z,89.21
2016-06-15T06:11:43.318Z,90.26
2016-06-15T06:12:43.149Z,91.61
2016-06-15T06:13:43.294Z,91.75
2016-06-15T06:14:43.280Z,92.86
2016-06-15T06:15:43.253Z,91.28
2016-06-15T06:16:43.255Z,90.99
2016-06-15T06:17:43.243Z,89.79
2016-06-15T06:18:43.214Z,90.84
2016-06-15T06:19:43.203Z,89.98
2016-06-15T06:20:43.190Z,89.83
2016-06-15T06:21:43.396Z,89.6
2016-06-15T06:22:43.165Z,89.79
2016-06-15T06:23:43.152Z,89.98
2016-06-15T06:24:43.124Z,90.75
2016-06-15T06:25:43.127Z,90.46
2016-06-15T06:26:43.099Z,88.73
2016-06-15T06:27:43.086Z,89.12
2016-06-15T06:28:43.058Z,88.93
2016-06-15T06:29:43.046Z,88.06
2016-06-15T06:30:43.048Z,87.96
2016-06-15T06:31:43.036Z,87.05
2016-06-15T06:32:43.007Z,87.53
2016-06-15T06:33:42.996Z,87.96
2016-06-15T06:34:42.983Z,87.58
2016-06-15T06:35:42.970Z,87.34
2016-06-15T06:36:42.942Z,87.05
2016-06-15T06:37:42.944Z,87.15
2016-06-15T06:38:42.917Z,86.95
2016-06-15T06:39:42.904Z,87.05
2016-06-15T06:40:42.954Z,86.09
2016-06-15T06:41:42.863Z,86.09
2016-06-15T06:42:42.913Z,85.8
2016-06-15T06:43:43.588Z,85.36
2016-06-15T06:44:43.263Z,85.65
2016-06-15T06:45:42.814Z,84.59
2016-06-15T06:46:42.800Z,85.46
2016-06-15T06:47:42.789Z,85.89
2016-06-15T06:48:42.775Z,85.61
2016-06-15T06:49:42.748Z,85.99
2016-06-15T06:50:42.735Z,85.46
2016-06-15T06:51:43.004Z,85.51
2016-06-15T06:52:42.710Z,86.28
2016-06-15T06:53:42.697Z,86.52
2016-06-15T06:54:42.669Z,85.99
2016-06-15T06:55:42.657Z,85.99
2016-06-15T06:56:42.644Z,86.38
2016-06-15T06:57:42.632Z,86.57
2016-06-15T06:58:42.634Z,85.51
2016-06-15T06:59:42.607Z,86.09
2016-06-15T07:00:42.594Z,85.61
2016-06-15T07:01:42.582Z,85.99
2016-06-15T07:02:42.569Z,85.8
2016-06-15T07:03:42.556Z,86.18
2016-06-15T07:04:42.528Z,86.47
2016-06-15T07:05:42.515Z,86.76
2016-06-15T07:06:43.128Z,86.66
2016-06-15T07:07:42.490Z,85.65
2016-06-15T07:08:42.478Z,85.55
2016-06-15T07:09:42.465Z,86.47
2016-06-15T07:10:42.437Z,85.55
2016-06-15T07:11:42.441Z,85.99
2016-06-15T07:12:42.411Z,86.61
2016-06-15T07:13:42.400Z,86.42
2016-06-15T07:14:42.386Z,85.75
2016-06-15T07:15:42.375Z,86.32
2016-06-15T07:16:42.346Z,85.55
2016-06-15T07:17:42.334Z,85.75
2016-06-15T07:18:42.321Z,85.84
2016-06-15T07:19:42.308Z,86.04
2016-06-15T07:20:42.280Z,85.55
2016-06-15T07:21:42.690Z,86.04
2016-06-15T07:22:42.255Z,86.22
2016-06-15T07:23:42.086Z,86.04
2016-06-15T07:24:42.230Z,86.36
2016-06-15T07:25:42.218Z,86.8
2016-06-15T07:26:42.204Z,86.22
2016-06-15T07:27:42.193Z,85.88
2016-06-15T07:28:42.165Z,84.44
2016-06-15T07:29:41.996Z,84.73
2016-06-15T07:30:42.139Z,84.73
2016-06-15T07:31:42.127Z,84.54
2016-06-15T07:32:42.130Z,85.65
2016-06-15T07:33:42.101Z,84.59
2016-06-15T07:34:42.089Z,85.17
2016-06-15T07:35:42.076Z,85.84
2016-06-15T07:36:42.064Z,86.42
2016-06-15T07:37:42.051Z,86.32
2016-06-15T07:38:42.023Z,87.67
2016-06-15T07:39:42.010Z,86.32
2016-06-15T07:40:42.264Z,86.42
2016-06-15T07:41:41.986Z,86.52
2016-06-15T07:42:41.972Z,85.36
2016-06-15T07:43:41.945Z,85.84
2016-06-15T07:44:41.932Z,86.18
2016-06-15T07:45:41.935Z,86.28
2016-06-15T07:46:41.907Z,86.28
2016-06-15T07:47:41.894Z,86.38
2016-06-15T07:48:41.882Z,86.9
2016-06-15T07:49:41.713Z,86.52
2016-06-15T07:50:41.857Z,86.32
2016-06-15T07:51:42.313Z,85.78
2016-06-15T07:52:41.817Z,86.22
2016-06-15T07:53:41.803Z,85.98
2016-06-15T07:54:41.790Z,85.75
2016-06-15T07:55:41.779Z,85.75
2016-06-15T07:56:41.766Z,85.69
2016-06-15T07:57:41.769Z,85.69
2016-06-15T07:58:41.740Z,85.55
2016-06-15T07:59:41.556Z,86.04
2016-06-15T08:00:41.716Z,85.84
2016-06-15T08:01:41.687Z,86.08
2016-06-15T08:02:41.675Z,85.55
2016-06-15T08:03:41.662Z,85.69
2016-06-15T08:04:41.650Z,86.13
2016-06-15T08:05:41.637Z,85.65
2016-06-15T08:06:42.032Z,85.21
2016-06-15T08:07:41.612Z,85.36
2016-06-15T08:08:41.584Z,85.36
2016-06-15T08:09:41.572Z,84.63
2016-06-15T08:10:41.402Z,84.16
2016-06-15T08:11:41.547Z,83.58
2016-06-15T08:12:41.533Z,84.54
2016-06-15T08:13:41.521Z,84.25
2016-06-15T08:14:41.509Z,84.34
2016-06-15T08:15:42.043Z,84.06
2016-06-15T08:16:41.484Z,83.77
2016-06-15T08:17:41.455Z,83.48
2016-06-15T08:18:41.458Z,84.06
2016-06-15T08:19:41.430Z,83.58
2016-06-15T08:20:47.324Z,83.77
2016-06-15T08:21:43.421Z,84.5
2016-06-15T08:22:41.251Z,84.06
2016-06-15T08:23:42.802Z,83
2016-06-15T08:24:41.368Z,84.19
2016-06-15T08:25:41.340Z,84.54
2016-06-15T08:26:41.327Z,83.77
2016-06-15T08:27:41.314Z,84.06
2016-06-15T08:28:41.286Z,83.58
2016-06-15T08:29:41.133Z,83.48
2016-06-15T08:30:41.136Z,82.81
2016-06-15T08:31:41.248Z,83.04
2016-06-15T08:32:41.252Z,83.77
2016-06-15T08:33:41.239Z,84.58
2016-06-15T08:34:41.211Z,84.54
2016-06-15T08:35:41.199Z,84.54
2016-06-15T08:36:41.045Z,82.71
2016-06-15T08:37:41.189Z,82.81
2016-06-15T08:38:41.160Z,83.29
2016-06-15T08:39:41.164Z,83.67
2016-06-15T08:40:41.136Z,83.67
2016-06-15T08:41:41.107Z,83.96
2016-06-15T08:42:41.095Z,83.96
2016-06-15T08:43:41.082Z,83.62
2016-06-15T08:44:41.069Z,83.86
2016-06-15T08:45:41.058Z,83.19
2016-06-15T08:46:41.060Z,83.58
2016-06-15T08:47:41.033Z,83.48
2016-06-15T08:48:41.019Z,82.61
2016-06-15T08:49:40.850Z,82.61
2016-06-15T08:50:40.995Z,81.56
2016-06-15T08:51:40.825Z,82.14
2016-06-15T08:52:41.438Z,82.42
2016-06-15T08:53:40.956Z,80.79
2016-06-15T08:54:40.929Z,81.42
2016-06-15T08:55:40.947Z,80.94
2016-06-15T08:56:40.903Z,80.84
2016-06-15T08:57:40.891Z,80.79
2016-06-15T08:58:40.862Z,79.92
2016-06-15T08:59:40.865Z,78.67
2016-06-15T09:00:40.868Z,78.15
2016-06-15T09:01:40.826Z,77.71
2016-06-15T09:02:40.813Z,77.51
2016-06-15T09:03:40.800Z,77.51
2016-06-15T09:04:40.788Z,77.67
2016-06-15T09:05:40.775Z,77.96
2016-06-15T09:06:41.653Z,77.67
2016-06-15T09:07:40.750Z,77.76
2016-06-15T09:08:40.738Z,78.06
2016-06-15T09:09:40.709Z,77.96
2016-06-15T09:10:40.696Z,77.58
2016-06-15T09:11:40.700Z,77.48
2016-06-15T09:12:40.655Z,76.42
2016-06-15T09:13:40.684Z,75.88
2016-06-15T09:14:40.639Z,76.46
2016-06-15T09:16:04.596Z,76.65
2016-06-15T09:16:40.612Z,75.88
2016-06-15T09:17:40.599Z,75.4
2016-06-15T09:18:40.587Z,75.49
2016-06-15T09:19:40.574Z,75.49
2016-06-15T09:20:40.561Z,75.24
2016-06-15T09:21:40.550Z,75.54
2016-06-15T09:22:40.536Z,76.01
2016-06-15T09:23:40.493Z,76.17
2016-06-15T09:24:40.495Z,75.88
2016-06-15T09:25:40.546Z,75.34
2016-06-15T09:26:40.314Z,75.24
2016-06-15T09:27:40.536Z,74.67
2016-06-15T09:28:40.446Z,74.09
2016-06-15T09:29:40.427Z,74.57
2016-06-15T09:30:40.415Z,74.57
2016-06-15T09:31:40.402Z,74.71
2016-06-15T09:32:40.390Z,75.24
2016-06-15T09:33:40.362Z,74.48
2016-06-15T09:34:40.348Z,74.22
2016-06-15T09:35:40.524Z,73.97
2016-06-15T09:36:40.324Z,73.84
2016-06-15T09:37:40.545Z,73.58
2016-06-15T09:38:40.329Z,73.26
2016-06-15T09:39:40.348Z,73.94
2016-06-15T09:40:40.117Z,75.09
2016-06-15T09:41:40.261Z,74.22
2016-06-15T09:42:40.233Z,77.08
2016-06-15T09:43:40.236Z,77.65
2016-06-15T09:44:40.223Z,77.81
2016-06-15T09:45:40.212Z,79.1
2016-06-15T09:46:40.198Z,78.61
2016-06-15T09:47:40.029Z,79.28
2016-06-15T09:48:40.157Z,80.88
2016-06-15T09:49:40.145Z,79.92
2016-06-15T09:50:40.147Z,80.11
2016-06-15T09:51:41.511Z,80.36
2016-06-15T09:52:40.123Z,79.73
2016-06-15T09:53:40.251Z,79.05
2016-06-15T09:54:40.394Z,79.25
2016-06-15T09:55:40.070Z,79
2016-06-15T09:56:40.041Z,78.52
2016-06-15T09:57:40.044Z,79.53
2016-06-15T09:58:40.016Z,79.05
2016-06-15T09:59:40.145Z,78.71
2016-06-15T10:00:40.053Z,79.15
2016-06-15T10:01:40.041Z,79.15
2016-06-15T10:02:39.966Z,78.9
2016-06-15T10:03:39.969Z,78.13
2016-06-15T10:04:39.975Z,77.56
2016-06-15T10:05:39.987Z,76.34
2016-06-15T10:06:40.124Z,76.15
2016-06-15T10:07:39.918Z,75.86
2016-06-15T10:08:40.163Z,75.42
2016-06-15T10:09:40.069Z,76.57
2016-06-15T10:10:40.087Z,77.01
2016-06-15T10:11:40.103Z,77.26
2016-06-15T10:12:40.105Z,77.5
2016-06-15T10:13:39.936Z,77.46
2016-06-15T10:14:40.074Z,77.88
2016-06-15T10:15:40.050Z,78.71
2016-06-15T10:16:40.074Z,77.94
2016-06-15T10:17:50.950Z,76.98
2016-06-15T10:18:40.028Z,78.33
2016-06-15T10:19:40.035Z,78.13
2016-06-15T10:20:40.009Z,77.94
2016-06-15T10:21:40.014Z,77.01
2016-06-15T10:22:40.597Z,77.11
2016-06-15T10:23:39.977Z,76.92
2016-06-15T10:24:39.981Z,76.34
2016-06-15T10:25:39.970Z,75.42
2016-06-15T10:26:39.958Z,74.97
2016-06-15T10:27:39.944Z,75.26
2016-06-15T10:28:39.917Z,75.55
2016-06-15T10:29:39.906Z,75.42
2016-06-15T10:30:39.893Z,75.42
2016-06-15T10:31:39.896Z,75.26
2016-06-15T10:32:40.041Z,74.68
2016-06-15T10:33:39.965Z,74.1
2016-06-15T10:34:39.860Z,74.2
2016-06-15T10:35:42.832Z,74.4
2016-06-15T10:36:47.647Z,74.88
2016-06-15T10:37:50.479Z,73.43
2016-06-15T10:38:48.185Z,73.78
2016-06-15T10:39:48.375Z,73.05
2016-06-15T10:40:45.567Z,71.7
2016-06-15T10:41:45.991Z,70.57
2016-06-15T10:42:54.635Z,72.12
2016-06-15T10:43:39.732Z,70.19
2016-06-15T10:44:39.719Z,69.16
2016-06-15T10:45:43.410Z,69.55
2016-06-15T10:46:56.007Z,70
2016-06-15T10:47:52.322Z,71.41
2016-06-15T10:49:13.876Z,71.12
2016-06-15T10:50:14.363Z,70.19
2016-06-15T10:51:24.960Z,71.15
2016-06-15T10:53:01.291Z,70.92
2016-06-15T10:55:47.456Z,71.09
2016-06-15T10:56:00.659Z,71.47
2016-06-15T10:57:00.662Z,72.95
2016-06-15T10:58:00.681Z,73.01
2016-06-15T10:59:00.622Z,73.3
2016-06-15T11:00:00.610Z,73.2
2016-06-15T11:01:00.613Z,74.16
2016-06-15T11:02:00.585Z,74.07
2016-06-15T11:03:00.635Z,76.09
2016-06-15T11:04:00.575Z,76.18
2016-06-15T11:05:00.547Z,76.44
2016-06-15T11:06:00.581Z,76.63
2016-06-15T11:07:00.523Z,77.21
2016-06-15T11:08:00.853Z,77.46
2016-06-15T11:09:00.481Z,77.98
2016-06-15T11:10:00.578Z,77.56
2016-06-15T11:11:00.487Z,76.63
2016-06-15T11:12:00.475Z,76.01
2016-06-15T11:13:00.353Z,75.03
2016-06-15T11:14:00.419Z,73.91
2016-06-15T11:15:00.421Z,72.41
2016-06-15T11:16:00.393Z,72.21
2016-06-15T11:17:00.474Z,71.96
2016-06-15T11:18:00.384Z,72.02
2016-06-15T11:19:00.372Z,72.02
2016-06-15T11:20:00.358Z,70.32
2016-06-15T11:21:00.331Z,70.13
2016-06-15T11:22:00.334Z,70.32
2016-06-15T11:23:00.367Z,69.55
2016-06-15T11:24:00.324Z,69.64
2016-06-15T11:25:00.312Z,68.01
2016-06-15T11:26:00.298Z,66.3
2016-06-15T11:27:00.990Z,67.71
2016-06-15T11:28:00.368Z,66.52
2016-06-15T11:29:00.307Z,66.82
2016-06-15T11:30:00.233Z,66.52
2016-06-15T11:31:00.236Z,66.46
2016-06-15T11:32:00.224Z,66.17
2016-06-15T11:33:00.195Z,65.63
2016-06-15T11:34:00.183Z,65.98
2016-06-15T11:35:00.248Z,65.11
2016-06-15T11:36:00.299Z,62.57
2016-06-15T11:36:59.990Z,62.31
2016-06-15T11:38:00.835Z,62.47
2016-06-15T11:39:00.135Z,61.89
2016-06-15T11:40:00.123Z,61.44
2016-06-15T11:41:00.110Z,61.05
2016-06-15T11:41:59.989Z,59.34
2016-06-15T11:43:00.086Z,58.37
2016-06-15T11:44:00.073Z,55.79
2016-06-15T11:45:00.076Z,55.21
2016-06-15T11:46:00.063Z,54.73
2016-06-15T11:47:00.052Z,56.86
2016-06-15T11:48:00.038Z,56.96
2016-06-15T11:49:00.026Z,55.09
2016-06-15T11:50:00.045Z,55.24
2016-06-15T11:51:00.016Z,53.5
2016-06-15T11:52:00.051Z,51.4
2016-06-15T11:53:00.085Z,51.64
2016-06-15T11:54:00.010Z,51.86
2016-06-15T11:55:00.029Z,52.41
2016-06-15T11:56:00.000Z,52.99
2016-06-15T11:56:59.988Z,53.57
2016-06-15T11:57:59.991Z,53.59
2016-06-15T11:58:59.978Z,52.63
2016-06-15T12:00:00.076Z,55.38
2016-06-15T12:00:59.969Z,54.75
2016-06-15T12:01:59.973Z,52.53
2016-06-15T12:02:59.960Z,51.25
2016-06-15T12:03:59.963Z,51.47
2016-06-15T12:04:59.951Z,50.72
2016-06-15T12:05:59.953Z,51.78
2016-06-15T12:06:59.941Z,50.7
2016-06-15T12:07:59.927Z,52.87
2016-06-15T12:08:59.916Z,52.31
2016-06-15T12:09:59.903Z,52.48
2016-06-15T12:10:59.906Z,49.7
2016-06-15T12:11:59.940Z,50.7
2016-06-15T12:12:59.896Z,50.82
2016-06-15T12:13:59.915Z,49.92
2016-06-15T12:14:59.888Z,49.54
2016-06-15T12:15:59.891Z,49.73
2016-06-15T12:16:59.721Z,48.88
2016-06-15T12:17:59.865Z,47.84
2016-06-15T12:18:59.853Z,48.9
2016-06-15T12:19:59.856Z,48.37
2016-06-15T12:20:59.859Z,47.26
2016-06-15T12:21:59.846Z,47.55
2016-06-15T12:23:00.286Z,45.83
2016-06-15T12:23:59.899Z,45.17
2016-06-15T12:24:59.949Z,47.02
2016-06-15T12:25:59.827Z,47.04
2016-06-15T12:26:59.830Z,46.72
2016-06-15T12:27:59.817Z,45.75
2016-06-15T12:28:59.820Z,47.77
2016-06-15T12:29:59.809Z,47.45
2016-06-15T12:30:59.812Z,45.34
2016-06-15T12:31:59.799Z,43.84
2016-06-15T12:32:59.801Z,45.2
2016-06-15T12:33:59.789Z,45.64
2016-06-15T12:34:59.793Z,44.98
2016-06-15T12:35:59.796Z,44.81
2016-06-15T12:36:59.860Z,45.78
2016-06-15T12:37:59.833Z,47.86
2016-06-15T12:38:59.789Z,46.09
2016-06-15T12:39:59.823Z,45.56
2016-06-15T12:40:59.812Z,46.24
2016-06-15T12:41:59.876Z,46.6
2016-06-15T12:42:59.785Z,45.81
2016-06-15T12:43:59.757Z,46.77
2016-06-15T12:44:59.745Z,47.64
2016-06-15T12:45:59.748Z,46.94
2016-06-15T12:46:59.798Z,46.12
2016-06-15T12:47:59.739Z,45.61
2016-06-15T12:48:59.725Z,46.66
2016-06-15T12:49:59.823Z,45.71
2016-06-15T12:50:59.732Z,44.98
2016-06-15T12:51:59.720Z,44.98
2016-06-15T12:52:59.723Z,43.7
2016-06-15T12:53:59.726Z,45.27
2016-06-15T12:54:59.698Z,46.09
2016-06-15T12:55:59.700Z,44.37
2016-06-15T12:56:59.703Z,43.26